Time;durP1;ratioP1;P1;durP2;ratioP2;P2;SDS_P1;SDS_P2;PMS_P1;PMS_P2;Temp;Humidity;BMP_temperature;BMP_pressure;BME280_temperature;BME280_humidity;BME280_pressure;Samples;Min_cycle;Max_cycle;Signal;HPM_P1;HPM_P2
2023/12/29 00:00:23;;;;;;;5.70;1.25;;;;;;;6.62;74.56;100455.84;4938336;29;20039;-71
2023/12/29 00:02:50;;;;;;;3.72;1.42;;;;;;;6.66;74.40;100457.34;4939014;29;20028;-71
2023/12/29 00:05:17;;;;;;;5.57;1.80;;;;;;;6.63;74.09;100468.34;4938164;29;20048;-71
2023/12/29 00:07:43;;;;;;;2.38;1.40;;;;;;;6.72;73.90;100463.16;4938786;29;20048;-71
2023/12/29 00:10:10;;;;;;;4.95;2.15;;;;;;;6.63;74.44;100460.25;4938715;29;20100;-71
2023/12/29 00:12:36;;;;;;;5.60;1.73;;;;;;;6.72;73.92;100467.66;4938505;29;20033;-71
2023/12/29 00:15:03;;;;;;;5.63;1.50;;;;;;;6.80;73.63;100462.53;4938239;29;20111;-71
2023/12/29 00:17:30;;;;;;;3.28;1.45;;;;;;;6.80;73.41;100461.66;4939088;29;20072;-71
2023/12/29 00:19:56;;;;;;;6.72;1.23;;;;;;;6.80;73.42;100443.66;4938594;29;20086;-71
2023/12/29 00:22:25;;;;;;;3.47;1.40;;;;;;;6.74;73.37;100437.91;4938117;29;20052;-71
2023/12/29 00:24:51;;;;;;;3.53;1.50;;;;;;;6.84;73.05;100434.38;4938459;29;20036;-71
2023/12/29 00:27:18;;;;;;;5.55;1.35;;;;;;;6.86;73.02;100440.50;4938266;29;20057;-71
2023/12/29 00:29:44;;;;;;;6.15;1.75;;;;;;;6.67;73.74;100440.19;4938619;29;20048;-70
2023/12/29 00:32:11;;;;;;;5.38;1.63;;;;;;;6.79;73.08;100436.56;4929493;29;20032;-71
2023/12/29 00:34:38;;;;;;;4.53;1.70;;;;;;;6.72;73.42;100429.91;4941838;29;20036;-71
2023/12/29 00:37:06;;;;;;;4.32;1.35;;;;;;;6.64;73.88;100437.75;4942298;29;20056;-71
2023/12/29 00:39:38;;;;;;;5.25;1.30;;;;;;;6.77;72.98;100432.28;4942034;29;20048;-71
2023/12/29 00:42:06;;;;;;;7.75;1.95;;;;;;;6.85;72.89;100430.69;4941692;29;20056;-71
2023/12/29 00:44:33;;;;;;;5.45;1.38;;;;;;;6.85;72.80;100440.63;4941648;29;20036;-70
2023/12/29 00:47:00;;;;;;;4.53;1.73;;;;;;;6.78;72.82;100433.97;4942467;29;20072;-71
2023/12/29 00:49:27;;;;;;;4.63;1.88;;;;;;;6.75;72.57;100424.31;4941773;29;20034;-71
2023/12/29 00:51:54;;;;;;;4.35;1.95;;;;;;;6.71;72.68;100428.19;4941859;29;20072;-70
2023/12/29 00:54:21;;;;;;;5.43;1.50;;;;;;;6.76;72.56;100415.25;4941597;29;20052;-71
2023/12/29 00:56:51;;;;;;;6.90;1.63;;;;;;;6.67;72.80;100421.34;4941230;29;20103;-72
2023/12/29 00:59:19;;;;;;;6.20;1.52;;;;;;;6.78;72.42;100420.50;4941739;29;20097;-72
2023/12/29 01:01:46;;;;;;;4.85;1.75;;;;;;;6.72;72.82;100416.44;4941615;29;20032;-72
2023/12/29 01:04:13;;;;;;;9.43;1.45;;;;;;;6.76;72.73;100419.78;4940271;29;20060;-71
2023/12/29 01:06:40;;;;;;;3.97;1.70;;;;;;;6.63;72.87;100415.34;4941686;29;20043;-69
2023/12/29 01:09:11;;;;;;;4.35;1.67;;;;;;;6.65;72.70;100417.91;4940374;29;20055;-71
2023/12/29 01:11:38;;;;;;;4.65;1.70;;;;;;;6.68;72.67;100414.97;4941193;29;20034;-71
2023/12/29 01:14:07;;;;;;;8.77;2.65;;;;;;;6.79;72.31;100408.75;4941339;29;20040;-70
2023/12/29 01:16:34;;;;;;;4.30;1.42;;;;;;;6.76;72.60;100409.84;4941225;29;20039;-71
2023/12/29 01:19:00;;;;;;;6.95;1.92;;;;;;;6.72;72.21;100402.97;4941881;29;20080;-71
2023/12/29 01:21:27;;;;;;;3.30;1.60;;;;;;;6.73;72.59;100396.63;4941023;29;20048;-71
2023/12/29 01:23:55;;;;;;;3.97;1.67;;;;;;;6.66;72.81;100387.28;4941057;29;20051;-71
2023/12/29 01:26:21;;;;;;;3.75;1.58;;;;;;;6.69;72.10;100387.03;4940528;29;20052;-71
2023/12/29 01:28:48;;;;;;;4.53;1.80;;;;;;;6.74;72.50;100390.25;4940914;29;20031;-70
2023/12/29 01:31:15;;;;;;;4.32;1.88;;;;;;;6.85;71.73;100384.88;4941015;29;20056;-71
2023/12/29 01:33:41;;;;;;;3.85;1.45;;;;;;;6.74;72.37;100376.78;4940893;29;20406;-70
2023/12/29 01:36:08;;;;;;;3.47;1.60;;;;;;;6.77;71.96;100370.28;4940993;29;20119;-71
2023/12/29 01:38:43;;;;;;;4.45;1.55;;;;;;;6.66;72.71;100369.28;4940586;29;20088;-71
2023/12/29 01:41:11;;;;;;;4.22;1.75;;;;;;;6.72;72.29;100384.97;4940514;29;20103;-72
2023/12/29 01:43:57;;;;;;;5.35;1.70;;;;;;;6.65;72.33;100380.19;4939820;29;20032;-70
2023/12/29 01:46:25;;;;;;;5.55;1.58;;;;;;;6.72;72.23;100376.00;4940467;29;20080;-70
2023/12/29 01:48:52;;;;;;;4.47;1.98;;;;;;;6.76;72.50;100372.09;4940393;29;20131;-71
2023/12/29 01:51:23;;;;;;;4.20;1.58;;;;;;;6.77;72.08;100367.56;4940111;29;20046;-72
2023/12/29 01:53:55;;;;;;;3.33;1.58;;;;;;;6.63;72.55;100352.47;4940404;29;20048;-71
2023/12/29 01:56:22;;;;;;;3.58;1.58;;;;;;;6.68;72.60;100361.06;4939617;29;20056;-72
2023/12/29 01:58:49;;;;;;;7.80;1.85;;;;;;;6.71;72.64;100352.72;4939760;29;20036;-71
2023/12/29 02:01:18;;;;;;;5.97;1.75;;;;;;;6.84;72.11;100353.50;4940182;29;20044;-71
2023/12/29 02:03:45;;;;;;;4.72;1.45;;;;;;;6.77;72.11;100344.16;4940079;29;20036;-71
2023/12/29 02:09:59;;;;;;;4.60;1.50;;;;;;;6.74;72.43;100341.72;4939307;29;20059;-71
2023/12/29 02:12:26;;;;;;;5.70;1.90;;;;;;;6.75;72.42;100348.84;4937814;29;20052;-71
2023/12/29 02:14:53;;;;;;;5.97;1.67;;;;;;;6.92;71.90;100344.81;4938442;29;20044;-70
2023/12/29 02:17:26;;;;;;;3.60;1.60;;;;;;;6.91;71.46;100340.38;4938270;29;20410;-71
2023/12/29 02:19:53;;;;;;;4.25;1.88;;;;;;;6.81;72.27;100342.09;4938261;29;20056;-71
2023/12/29 02:22:19;;;;;;;3.72;1.42;;;;;;;6.75;72.42;100331.81;4937377;29;20054;-73
2023/12/29 02:24:47;;;;;;;6.47;1.95;;;;;;;6.85;72.33;100332.78;4937249;29;20047;-72
2023/12/29 02:27:35;;;;;;;3.72;1.40;;;;;;;6.84;72.28;100318.47;4938160;29;20056;-71
2023/12/29 02:30:09;;;;;;;3.90;1.42;;;;;;;6.83;72.47;100322.13;4899947;29;20048;-72
2023/12/29 02:32:39;;;;;;;5.18;1.60;;;;;;;6.81;72.29;100305.19;4920566;29;20028;-71
2023/12/29 02:35:10;;;;;;;5.68;1.90;;;;;;;6.85;71.87;100317.47;4937260;29;20048;-71
2023/12/29 02:37:39;;;;;;;4.07;1.50;;;;;;;6.89;71.75;100313.53;4938117;29;20111;-72
2023/12/29 02:40:08;;;;;;;3.85;1.85;;;;;;;6.69;72.37;100309.72;4937528;29;20047;-71
2023/12/29 02:42:35;;;;;;;4.72;1.73;;;;;;;6.78;71.85;100305.44;4937592;29;20060;-72
2023/12/29 02:45:02;;;;;;;2.60;1.40;;;;;;;6.84;72.09;100294.19;4936635;29;20112;-71
2023/12/29 02:47:29;;;;;;;3.67;1.55;;;;;;;6.88;72.10;100302.88;4938359;29;20417;-71
2023/12/29 02:49:55;;;;;;;2.92;1.48;;;;;;;6.83;71.98;100302.41;4937607;29;20059;-71
2023/12/29 02:52:22;;;;;;;3.42;1.77;;;;;;;6.97;71.48;100300.31;4937021;29;20087;-71
2023/12/29 02:54:48;;;;;;;5.13;1.58;;;;;;;6.89;71.72;100291.97;4936746;29;20072;-71
2023/12/29 02:57:17;;;;;;;5.03;1.70;;;;;;;6.94;71.67;100281.69;4936008;29;20066;-71
2023/12/29 02:59:44;;;;;;;3.38;1.58;;;;;;;6.91;71.43;100281.94;4938615;29;20076;-72
2023/12/29 03:02:11;;;;;;;3.83;1.30;;;;;;;6.82;71.99;100279.97;4937369;29;20055;-72
2023/12/29 03:04:37;;;;;;;4.65;1.42;;;;;;;6.88;71.80;100295.66;4937184;29;20115;-71
2023/12/29 03:07:04;;;;;;;3.78;1.63;;;;;;;6.90;71.83;100282.03;4937705;29;20040;-71
2023/12/29 03:09:30;;;;;;;4.03;1.10;;;;;;;6.98;71.41;100283.16;4937277;29;20028;-71
2023/12/29 03:11:57;;;;;;;3.53;1.60;;;;;;;7.05;70.99;100279.97;4937610;29;20056;-71
2023/12/29 03:14:24;;;;;;;7.05;1.30;;;;;;;7.13;70.80;100272.13;4936948;29;20048;-70
2023/12/29 03:16:50;;;;;;;5.65;1.50;;;;;;;7.12;70.75;100275.78;4936731;29;20048;-71
2023/12/29 03:19:17;;;;;;;2.10;1.30;;;;;;;7.02;71.16;100285.63;4937410;29;20052;-71
2023/12/29 03:21:43;;;;;;;3.75;1.45;;;;;;;6.89;71.65;100278.50;4937365;29;20039;-72
2023/12/29 03:24:10;;;;;;;3.17;1.13;;;;;;;6.95;71.55;100283.41;4937462;29;20055;-72
2023/12/29 03:26:37;;;;;;;4.03;1.30;;;;;;;6.86;71.71;100269.81;4936772;29;20056;-71
2023/12/29 03:29:04;;;;;;;4.85;1.50;;;;;;;6.85;71.91;100277.03;4936721;29;20039;-72
2023/12/29 03:31:31;;;;;;;3.97;1.40;;;;;;;7.07;71.15;100278.00;4937348;29;20080;-72
2023/12/29 03:33:58;;;;;;;2.65;1.27;;;;;;;7.06;71.26;100282.53;4936492;29;20043;-71
2023/12/29 03:36:24;;;;;;;7.28;1.38;;;;;;;7.07;70.83;100268.06;4937242;29;20060;-71
2023/12/29 03:38:51;;;;;;;3.65;1.55;;;;;;;7.12;70.76;100265.88;4936963;29;20063;-71
2023/12/29 03:41:18;;;;;;;2.28;1.20;;;;;;;7.11;71.04;100263.31;4936651;29;20031;-71
2023/12/29 03:43:45;;;;;;;8.85;1.75;;;;;;;7.15;70.52;100249.41;4935815;29;20036;-72
2023/12/29 03:46:20;;;;;;;4.68;1.55;;;;;;;7.10;71.03;100248.97;4936885;29;20027;-71
2023/12/29 03:48:49;;;;;;;3.05;1.10;;;;;;;7.21;70.49;100243.53;4935821;29;20036;-71
2023/12/29 03:51:16;;;;;;;5.75;1.20;;;;;;;7.07;70.73;100254.56;4935104;29;20051;-71
2023/12/29 03:53:43;;;;;;;2.97;1.42;;;;;;;7.09;70.84;100251.75;4936928;29;20044;-71
2023/12/29 03:56:18;;;;;;;2.38;1.05;;;;;;;7.05;70.98;100250.31;4936399;29;20028;-71
2023/12/29 03:58:45;;;;;;;2.35;1.05;;;;;;;7.14;70.84;100241.47;4920611;29;20028;-71
2023/12/29 04:01:17;;;;;;;3.60;1.67;;;;;;;7.10;71.10;100240.88;4936320;29;20040;-72
2023/12/29 04:03:43;;;;;;;3.80;1.38;;;;;;;7.20;70.19;100241.81;4936842;29;20066;-71
2023/12/29 04:06:10;;;;;;;1.35;0.90;;;;;;;7.12;70.79;100236.19;4936764;29;20039;-71
2023/12/29 04:08:38;;;;;;;3.00;1.23;;;;;;;7.16;70.73;100228.69;4939343;29;20036;-71
2023/12/29 04:11:05;;;;;;;3.63;1.15;;;;;;;7.16;70.69;100226.00;4940390;29;20081;-70
2023/12/29 04:13:32;;;;;;;4.50;1.55;;;;;;;7.13;70.55;100224.41;4940185;29;20493;-71
2023/12/29 04:15:59;;;;;;;4.78;1.10;;;;;;;7.02;70.92;100216.34;4939612;29;20036;-71
2023/12/29 04:18:26;;;;;;;5.13;1.42;;;;;;;7.16;70.32;100217.91;4940571;29;20054;-71
2023/12/29 04:20:53;;;;;;;3.05;1.00;;;;;;;7.08;70.75;100214.97;4939598;29;20055;-71
2023/12/29 04:23:20;;;;;;;2.65;1.15;;;;;;;7.16;70.28;100207.13;4923283;29;20044;-71
2023/12/29 04:25:46;;;;;;;3.08;1.00;;;;;;;7.08;70.32;100209.59;4939699;29;20040;-71
2023/12/29 04:28:13;;;;;;;2.35;1.05;;;;;;;7.12;70.36;100205.69;4940601;29;20050;-71
2023/12/29 04:30:40;;;;;;;1.52;0.82;;;;;;;7.14;70.46;100198.31;4940293;29;20099;-72
2023/12/29 04:33:07;;;;;;;2.92;1.08;;;;;;;7.21;70.09;100189.59;4923286;29;20044;-71
2023/12/29 04:35:33;;;;;;;2.35;1.00;;;;;;;7.18;69.88;100183.56;4940128;29;20028;-71
2023/12/29 04:38:00;;;;;;;1.63;1.05;;;;;;;7.20;70.08;100197.81;4939197;29;20068;-71
2023/12/29 04:40:28;;;;;;;2.40;1.02;;;;;;;7.20;70.26;100197.81;4940303;29;20067;-71
2023/12/29 04:42:55;;;;;;;4.10;1.35;;;;;;;7.15;70.33;100190.09;4939938;29;20028;-71
2023/12/29 04:45:22;;;;;;;20.25;1.70;;;;;;;7.14;70.55;100188.38;4939102;29;20036;-72
2023/12/29 04:47:48;;;;;;;2.75;1.10;;;;;;;7.24;70.06;100178.53;4923708;29;20051;-71
2023/12/29 04:50:15;;;;;;;3.65;1.20;;;;;;;7.21;70.23;100196.81;4939122;29;20044;-71
2023/12/29 04:52:44;;;;;;;3.08;1.40;;;;;;;7.11;70.68;100182.38;4940580;29;20055;-72
2023/12/29 04:55:12;;;;;;;4.97;1.20;;;;;;;7.16;70.70;100163.97;4940105;29;20120;-71
2023/12/29 04:57:39;;;;;;;2.35;1.00;;;;;;;7.22;70.23;100174.25;4939635;29;20043;-71
2023/12/29 05:00:07;;;;;;;2.28;1.00;;;;;;;7.28;70.25;100174.63;4938946;29;20038;-71
2023/12/29 05:02:33;;;;;;;3.00;1.10;;;;;;;7.30;70.26;100166.38;4940031;29;20039;-71
2023/12/29 05:05:00;;;;;;;4.82;0.95;;;;;;;7.27;70.50;100172.88;4939089;29;20051;-71
2023/12/29 05:07:27;;;;;;;1.70;0.95;;;;;;;7.25;70.79;100165.91;4939847;29;20039;-71
2023/12/29 05:09:54;;;;;;;3.78;0.98;;;;;;;7.29;70.61;100172.78;4939206;29;20076;-71
2023/12/29 05:12:20;;;;;;;2.13;0.90;;;;;;;7.27;70.67;100164.78;4939312;29;20055;-71
2023/12/29 05:14:48;;;;;;;3.92;1.00;;;;;;;7.32;70.77;100168.94;4939463;29;20076;-71
2023/12/29 05:17:15;;;;;;;4.07;0.90;;;;;;;7.29;70.80;100164.69;4938378;29;20044;-71
2023/12/29 05:19:41;;;;;;;1.95;0.98;;;;;;;7.26;71.01;100164.91;4939188;29;20074;-71
2023/12/29 05:22:08;;;;;;;2.95;1.10;;;;;;;7.30;71.00;100171.78;4939537;29;20032;-71
2023/12/29 05:24:35;;;;;;;3.65;0.82;;;;;;;7.26;71.16;100173.00;4939586;29;20107;-71
2023/12/29 05:27:02;;;;;;;2.83;1.45;;;;;;;7.33;71.07;100174.22;4939415;29;20051;-71
2023/12/29 05:29:28;;;;;;;1.38;0.75;;;;;;;7.29;71.19;100168.22;4940482;29;20028;-72
2023/12/29 05:31:55;;;;;;;3.20;1.17;;;;;;;7.25;71.24;100163.19;4939805;29;20143;-71
2023/12/29 05:34:24;;;;;;;3.33;0.70;;;;;;;7.26;71.29;100167.59;4939351;29;20050;-71
2023/12/29 05:36:51;;;;;;;3.92;0.77;;;;;;;7.31;71.37;100165.41;4939509;29;20060;-72
2023/12/29 05:39:18;;;;;;;3.35;1.10;;;;;;;7.42;70.60;100165.38;4939081;29;20052;-71
2023/12/29 05:41:45;;;;;;;2.47;0.90;;;;;;;7.37;70.77;100150.56;4939429;29;20028;-73
2023/12/29 05:44:12;;;;;;;2.08;0.73;;;;;;;7.47;70.44;100157.78;4939454;29;20040;-72
2023/12/29 05:46:39;;;;;;;2.67;1.15;;;;;;;7.46;70.67;100155.19;4938774;29;20032;-72
2023/12/29 05:49:05;;;;;;;3.03;0.80;;;;;;;7.52;70.36;100169.03;4938960;29;20036;-71
2023/12/29 05:51:32;;;;;;;1.98;0.80;;;;;;;7.52;70.11;100169.03;4938829;29;20072;-72
2023/12/29 05:53:59;;;;;;;2.95;1.15;;;;;;;7.45;69.97;100166.97;4938271;29;20047;-71
2023/12/29 05:56:25;;;;;;;3.47;0.90;;;;;;;7.40;70.29;100155.72;4938556;29;20035;-72
2023/12/29 05:58:52;;;;;;;5.88;1.05;;;;;;;7.29;70.73;100160.13;4938551;29;20044;-71
2023/12/29 06:01:19;;;;;;;2.28;0.88;;;;;;;7.25;70.71;100160.50;4938328;29;20051;-71
2023/12/29 06:03:46;;;;;;;2.80;0.95;;;;;;;7.28;70.99;100162.94;4939504;29;20036;-72
2023/12/29 06:06:13;;;;;;;4.05;0.82;;;;;;;7.32;70.28;100141.97;4939298;29;20065;-72
2023/12/29 06:08:39;;;;;;;3.13;0.85;;;;;;;7.44;69.76;100138.28;4938914;29;20036;-72
2023/12/29 06:11:06;;;;;;;2.70;1.05;;;;;;;7.34;70.05;100143.56;4938522;29;20039;-71
2023/12/29 06:13:33;;;;;;;5.30;1.63;;;;;;;7.44;69.48;100135.56;4938626;29;20036;-71
2023/12/29 06:15:59;;;;;;;2.20;0.93;;;;;;;7.47;69.22;100133.50;4938108;29;20052;-72
2023/12/29 06:18:27;;;;;;;1.73;0.80;;;;;;;7.48;69.46;100126.25;4938097;29;20104;-71
2023/12/29 06:20:54;;;;;;;4.85;0.77;;;;;;;7.57;69.05;100120.06;4938456;29;20040;-71
2023/12/29 06:23:21;;;;;;;3.72;1.05;;;;;;;7.50;69.59;100114.31;4937711;29;20032;-72
2023/12/29 06:25:47;;;;;;;2.92;0.80;;;;;;;7.55;68.95;100122.88;4937562;29;20100;-70
2023/12/29 06:28:14;;;;;;;4.93;1.05;;;;;;;7.69;68.32;100118.16;4938506;29;20039;-71
2023/12/29 06:30:40;;;;;;;3.40;0.90;;;;;;;7.56;68.90;100135.41;4937803;29;20044;-71
2023/12/29 06:33:10;;;;;;;2.92;1.10;;;;;;;7.69;68.51;100153.25;4937648;29;20108;-72
2023/12/29 06:35:38;;;;;;;4.18;1.85;;;;;;;7.73;68.32;100151.97;4936839;29;20107;-72
2023/12/29 06:38:05;;;;;;;3.05;0.85;;;;;;;7.72;68.28;100177.25;4936607;29;20048;-72
2023/12/29 06:40:32;;;;;;;3.30;0.93;;;;;;;7.80;68.28;100196.38;4937250;29;20032;-72
2023/12/29 06:42:58;;;;;;;2.67;0.88;;;;;;;7.81;68.04;100185.44;4938137;29;20051;-72
2023/12/29 06:45:25;;;;;;;3.67;1.27;;;;;;;7.80;67.84;100174.78;4937093;29;20032;-71
2023/12/29 06:47:52;;;;;;;4.72;1.65;;;;;;;7.83;68.10;100169.94;4937587;29;20036;-71
2023/12/29 06:50:18;;;;;;;2.13;1.25;;;;;;;7.83;68.33;100188.00;4937339;29;20047;-71
2023/12/29 06:52:46;;;;;;;2.78;1.30;;;;;;;7.94;67.70;100166.38;4938539;29;20044;-72
2023/12/29 06:55:12;;;;;;;2.95;1.10;;;;;;;7.96;67.59;100174.31;4938100;29;20076;-71
2023/12/29 06:57:39;;;;;;;2.88;0.90;;;;;;;7.90;67.62;100170.28;4937048;29;20044;-71
2023/12/29 07:00:06;;;;;;;8.90;1.60;;;;;;;7.85;68.13;100173.41;4937370;29;20059;-71
2023/12/29 07:02:33;;;;;;;3.17;1.02;;;;;;;7.84;68.15;100169.00;4937331;28;20044;-71
2023/12/29 07:05:00;;;;;;;2.22;1.20;;;;;;;7.85;68.01;100184.22;4938168;29;20028;-71
2023/12/29 07:07:27;;;;;;;5.50;1.08;;;;;;;7.88;67.70;100179.53;4937248;29;20048;-71
2023/12/29 07:09:53;;;;;;;3.30;0.98;;;;;;;7.91;67.33;100166.59;4938139;29;20047;-71
2023/12/29 07:12:20;;;;;;;11.20;2.72;;;;;;;7.92;68.02;100176.41;4938462;29;20052;-71
2023/12/29 07:14:49;;;;;;;2.97;1.00;;;;;;;7.99;67.56;100176.75;4937321;29;20095;-70
2023/12/29 07:17:17;;;;;;;3.42;1.40;;;;;;;8.04;67.38;100175.38;4938212;29;20043;-71
2023/12/29 07:19:43;;;;;;;4.32;1.30;;;;;;;7.97;67.50;100170.63;4937643;29;20419;-71
2023/12/29 07:22:10;;;;;;;2.85;1.08;;;;;;;7.94;68.13;100171.75;4937930;29;20048;-71
2023/12/29 07:24:37;;;;;;;2.25;1.08;;;;;;;8.07;67.52;100182.34;4937906;29;21444;-71
2023/12/29 07:27:04;;;;;;;4.68;1.20;;;;;;;7.89;68.32;100170.44;4937239;29;20036;-70
2023/12/29 07:29:31;;;;;;;5.13;1.35;;;;;;;7.89;68.30;100178.53;4938172;29;20062;-70
2023/12/29 07:31:57;;;;;;;2.78;1.02;;;;;;;7.91;68.13;100172.00;4937308;29;20068;-71
2023/12/29 07:34:24;;;;;;;2.85;1.15;;;;;;;8.00;67.99;100179.31;4936855;29;20039;-70
2023/12/29 07:36:51;;;;;;;8.00;1.30;;;;;;;8.10;67.73;100182.06;4936870;29;20063;-70
2023/12/29 07:39:18;;;;;;;2.33;1.23;;;;;;;8.13;67.38;100177.28;4937652;29;20051;-70
2023/12/29 07:41:45;;;;;;;4.80;1.10;;;;;;;8.00;67.82;100181.16;4937447;29;20044;-70
2023/12/29 07:44:12;;;;;;;3.58;1.30;;;;;;;7.98;67.61;100173.19;4937960;29;20047;-70
2023/12/29 07:46:40;;;;;;;2.88;1.05;;;;;;;7.92;68.21;100168.31;4937591;29;20044;-70
2023/12/29 07:49:07;;;;;;;5.50;1.83;;;;;;;8.05;67.87;100174.38;4937416;29;20108;-70
2023/12/29 07:51:34;;;;;;;5.20;1.65;;;;;;;8.08;67.57;100178.66;4937430;29;20028;-71
2023/12/29 07:54:01;;;;;;;4.95;2.13;;;;;;;8.09;67.28;100185.78;4937186;29;20040;-70
2023/12/29 07:56:27;;;;;;;2.42;1.35;;;;;;;8.12;67.06;100183.69;4936581;29;20048;-71
2023/12/29 07:58:54;;;;;;;8.60;2.05;;;;;;;8.17;67.14;100187.81;4936703;29;20083;-72
2023/12/29 08:01:20;;;;;;;3.58;1.15;;;;;;;8.14;67.34;100184.41;5048482;23;20024;-70
2023/12/29 08:03:47;;;;;;;5.22;2.05;;;;;;;8.10;68.07;100195.59;4956475;28;20047;-72
2023/12/29 08:06:14;;;;;;;6.47;1.27;;;;;;;8.18;67.54;100201.19;4956158;28;20469;-71
2023/12/29 08:08:41;;;;;;;5.82;1.52;;;;;;;8.12;67.72;100191.78;4956374;28;20043;-71
2023/12/29 08:11:17;;;;;;;8.00;1.90;;;;;;;8.23;67.19;100192.69;4956068;28;20063;-72
2023/12/29 08:13:48;;;;;;;6.13;1.50;;;;;;;8.32;67.35;100208.09;4956570;28;20047;-72
2023/12/29 08:16:17;;;;;;;8.80;2.80;;;;;;;8.45;66.40;100197.91;4939817;29;20072;-70
2023/12/29 08:18:44;;;;;;;4.40;1.83;;;;;;;8.43;66.60;100199.91;4956375;28;20047;-72
2023/12/29 08:21:21;;;;;;;5.03;1.33;;;;;;;8.46;66.15;100190.66;4941898;29;20051;-72
2023/12/29 08:23:48;;;;;;;3.78;1.55;;;;;;;8.51;66.43;100197.38;4939802;29;20509;-70
2023/12/29 08:26:15;;;;;;;8.43;1.20;;;;;;;8.51;66.23;100188.44;4939510;29;20051;-72
2023/12/29 08:28:42;;;;;;;4.68;1.35;;;;;;;8.48;66.90;100192.22;4939988;29;20071;-72
2023/12/29 08:31:09;;;;;;;3.78;1.70;;;;;;;8.57;66.38;100201.38;4938898;29;20054;-71
2023/12/29 08:33:36;;;;;;;7.22;1.75;;;;;;;8.43;66.24;100192.66;4938914;29;20517;-70
2023/12/29 08:36:03;;;;;;;3.90;1.20;;;;;;;8.51;66.24;100208.19;4937772;29;20135;-71
2023/12/29 08:38:31;;;;;;;6.80;2.00;;;;;;;8.42;66.61;100204.47;4938706;29;20112;-71
2023/12/29 08:40:58;;;;;;;4.15;1.20;;;;;;;8.50;66.08;100211.91;4939706;29;20090;-71
2023/12/29 08:43:25;;;;;;;2.25;1.25;;;;;;;8.45;66.66;100214.13;4940686;29;20118;-71
2023/12/29 08:45:51;;;;;;;4.95;1.25;;;;;;;8.48;66.73;100219.25;4941142;29;20048;-71
2023/12/29 08:48:18;;;;;;;4.57;1.15;;;;;;;8.59;66.22;100210.25;4940279;29;20082;-71
2023/12/29 08:50:45;;;;;;;4.65;1.17;;;;;;;8.57;65.88;100209.50;4931998;29;20048;-71
2023/12/29 08:53:12;;;;;;;6.93;1.17;;;;;;;8.67;65.60;100219.34;4920988;29;20052;-71
2023/12/29 08:55:39;;;;;;;7.25;1.55;;;;;;;8.68;65.67;100191.34;4925725;29;20043;-71
2023/12/29 08:58:05;;;;;;;6.22;1.08;;;;;;;8.63;66.07;100207.13;4925644;29;20060;-71
2023/12/29 09:00:33;;;;;;;4.25;1.52;;;;;;;8.67;66.29;100203.13;4926821;29;20054;-71
2023/12/29 09:03:00;;;;;;;6.90;1.67;;;;;;;8.72;65.78;100183.81;4924776;29;20139;-71
2023/12/29 09:05:27;;;;;;;4.85;1.30;;;;;;;8.77;66.05;100199.59;4924361;29;20044;-71
2023/12/29 09:07:54;;;;;;;8.32;1.38;;;;;;;8.91;65.63;100197.41;4923711;29;20103;-71
2023/12/29 09:10:22;;;;;;;5.38;1.45;;;;;;;9.10;65.01;100207.41;4927617;29;20122;-71
2023/12/29 09:12:49;;;;;;;7.82;1.38;;;;;;;9.17;64.88;100216.69;4929221;29;20107;-69
2023/12/29 09:15:16;;;;;;;9.27;2.03;;;;;;;9.11;64.53;100200.16;4928829;29;20155;-72
2023/12/29 09:17:43;;;;;;;3.00;0.98;;;;;;;9.18;64.57;100196.75;4927128;29;20048;-70
2023/12/29 09:20:10;;;;;;;6.57;1.55;;;;;;;9.00;64.62;100199.28;4926543;29;20067;-72
2023/12/29 09:22:38;;;;;;;2.90;1.08;;;;;;;9.19;63.87;100198.47;4927867;29;20047;-72
2023/12/29 09:25:05;;;;;;;2.50;1.45;;;;;;;9.06;64.11;100214.09;4925383;29;20084;-72
2023/12/29 09:27:31;;;;;;;3.38;1.13;;;;;;;9.18;64.11;100217.56;4924778;29;20070;-72
2023/12/29 09:29:58;;;;;;;10.35;1.25;;;;;;;9.15;64.25;100218.69;4925227;29;20103;-72
2023/12/29 09:32:27;;;;;;;6.80;1.17;;;;;;;9.18;64.08;100213.00;4927569;29;20584;-71
2023/12/29 09:34:53;;;;;;;4.35;1.20;;;;;;;9.08;64.70;100212.13;4929062;29;20052;-70
2023/12/29 09:37:20;;;;;;;8.35;1.65;;;;;;;9.18;64.20;100218.41;4926858;29;20072;-71
2023/12/29 09:39:47;;;;;;;3.38;1.35;;;;;;;9.24;64.12;100217.91;4927813;29;20112;-72
2023/12/29 09:42:21;;;;;;;4.95;1.20;;;;;;;9.13;63.90;100211.69;4926720;29;20363;-71
2023/12/29 09:44:52;;;;;;;6.55;1.35;;;;;;;9.08;64.34;100206.72;4926730;29;20485;-70
2023/12/29 09:47:24;;;;;;;6.53;1.42;;;;;;;9.20;64.03;100205.59;4927148;29;20066;-69
2023/12/29 09:49:53;;;;;;;5.28;1.40;;;;;;;9.24;63.70;100207.06;4924989;29;20052;-70
2023/12/29 09:52:22;;;;;;;23.77;2.28;;;;;;;9.18;64.18;100206.72;4921562;29;20052;-70
2023/12/29 09:54:51;;;;;;;5.43;1.63;;;;;;;9.22;63.80;100214.44;4934368;29;20045;-69
2023/12/29 09:57:18;;;;;;;9.77;1.60;;;;;;;9.26;63.75;100204.22;5151005;23;21032;-70
2023/12/29 09:59:48;;;;;;;8.65;1.45;;;;;;;9.33;63.36;100204.50;4933375;29;20186;-71
2023/12/29 10:02:18;;;;;;;8.02;1.92;;;;;;;9.33;63.16;100196.38;4953114;29;20107;-71
2023/12/29 10:04:44;;;;;;;5.75;1.20;;;;;;;9.45;63.27;100216.94;4952689;29;20044;-70
2023/12/29 10:07:18;;;;;;;4.40;1.20;;;;;;;9.41;63.14;100207.34;4952627;29;20111;-71
2023/12/29 10:09:47;;;;;;;4.38;1.10;;;;;;;9.35;63.33;100197.09;4951187;29;20052;-68
2023/12/29 10:12:15;;;;;;;4.90;1.30;;;;;;;9.39;63.36;100190.41;4948178;29;20043;-70
2023/12/29 10:15:02;;;;;;;5.68;1.73;;;;;;;9.49;62.54;100193.97;4947772;29;20048;-70
2023/12/29 10:17:39;;;;;;;6.22;1.20;;;;;;;9.60;62.23;100191.13;4948034;29;20059;-70
2023/12/29 10:20:34;;;;;;;8.45;2.42;;;;;;;9.92;61.04;100190.00;4955951;29;20051;-70
2023/12/29 10:23:16;;;;;;;7.35;1.60;;;;;;;10.01;60.49;100189.13;4952224;29;20062;-70
2023/12/29 10:25:43;;;;;;;5.07;1.90;;;;;;;9.96;60.86;100192.25;4939987;29;20946;-73
2023/12/29 10:28:10;;;;;;;8.63;1.42;;;;;;;9.97;60.72;100168.72;4945567;29;20048;-71
2023/12/29 10:30:40;;;;;;;5.07;1.75;;;;;;;9.98;60.65;100167.72;4938640;29;20063;-71
2023/12/29 10:33:08;;;;;;;8.18;1.83;;;;;;;9.96;60.63;100159.75;4949605;28;20055;-68
2023/12/29 10:35:37;;;;;;;7.18;1.83;;;;;;;9.97;60.27;100160.59;4951903;28;20091;-71
2023/12/29 10:38:11;;;;;;;4.22;1.27;;;;;;;9.93;60.56;100159.19;4946216;28;20051;-70
2023/12/29 10:40:39;;;;;;;5.47;1.30;;;;;;;9.93;60.59;100151.91;4946594;29;20055;-70
2023/12/29 10:43:09;;;;;;;8.50;1.90;;;;;;;10.04;60.36;100167.16;4937824;29;20410;-70
2023/12/29 10:45:36;;;;;;;9.88;1.70;;;;;;;10.05;60.42;100168.84;4938066;29;20047;-70
2023/12/29 10:48:03;;;;;;;7.40;2.13;;;;;;;10.00;60.61;100171.16;4934974;29;20090;-72
2023/12/29 10:50:42;;;;;;;3.40;1.35;;;;;;;10.00;60.65;100161.16;4932965;28;20067;-71
2023/12/29 10:53:13;;;;;;;9.35;1.60;;;;;;;10.05;60.21;100185.09;4946444;28;20059;-71
2023/12/29 10:55:40;;;;;;;4.73;1.30;;;;;;;9.99;60.69;100164.88;4957984;28;20051;-70
2023/12/29 11:01:18;;;;;;;5.45;1.38;;;;;;;10.11;59.37;100168.28;5069008;23;20056;-71
2023/12/29 11:03:57;;;;;;;7.20;1.77;;;;;;;10.01;59.86;100181.00;4919553;29;20055;-71
2023/12/29 11:06:24;;;;;;;6.00;1.27;;;;;;;10.07;59.44;100180.38;4919562;29;20029;-71
2023/12/29 11:08:51;;;;;;;4.07;1.45;;;;;;;10.15;59.35;100180.53;4917930;29;20061;-71
2023/12/29 11:11:18;;;;;;;10.02;1.90;;;;;;;10.10;59.62;100189.09;4985929;23;20056;-71
2023/12/29 11:16:29;;;;;;;8.73;1.60;;;;;;;10.06;59.34;100187.66;5509607;23;20042;-70
2023/12/29 11:18:57;;;;;;;5.90;1.40;;;;;;;10.11;58.97;100184.53;4957025;28;20044;-71
2023/12/29 11:21:27;;;;;;;4.82;1.20;;;;;;;10.14;59.11;100176.09;4956629;28;20028;-72
2023/12/29 11:23:55;;;;;;;8.82;1.70;;;;;;;10.08;59.20;100168.56;4956719;28;20059;-71
2023/12/29 11:26:23;;;;;;;5.47;1.50;;;;;;;10.02;59.30;100161.03;4956173;28;20044;-71
2023/12/29 11:28:51;;;;;;;3.47;1.35;;;;;;;9.97;59.72;100172.28;4956434;28;20096;-72
2023/12/29 11:31:18;;;;;;;6.72;1.25;;;;;;;9.96;59.39;100169.72;4957231;28;20032;-72
2023/12/29 11:34:01;;;;;;;5.15;1.23;;;;;;;9.94;59.31;100158.19;4951313;28;20496;-71
2023/12/29 11:36:30;;;;;;;;;;;;;;;9.94;59.72;100161.75;4934393;29;20075;-71
2023/12/29 11:39:30;;;;;;;9.95;2.03;;;;;;;9.93;59.92;100148.34;4950437;29;19947;-71
2023/12/29 11:42:04;;;;;;;7.68;1.35;;;;;;;10.02;59.89;100164.59;4951148;29;20076;-71
2023/12/29 11:44:33;;;;;;;4.65;1.65;;;;;;;9.95;59.59;100149.06;4951203;29;20040;-71
2023/12/29 11:47:00;;;;;;;7.30;1.25;;;;;;;10.00;59.64;100160.31;4949694;29;20028;-72